AAL1364 MMMX-KDFW
Flight info
| Callsign | AAL1364 |
|---|---|
| Flight time | 2h 0m |
| Altitude | 35000 |
| Route | IKLAN2A IKLAN UT141 TAM UJ53 REX DCT SAT DCT GUTZZ SOCKK4 |
| Aircraft | B38M/M-SDE1FGHILORVWXY/HB1 |
Departure
| Time | 2026-05-07 21:33 |
|---|---|
| Airport | Mexico City Benito Juárez International Airport (MMMX) |
Arrival
| Time | 2026-05-07 23:34 |
|---|---|
| Airport | Dallas Fort Worth International Airport (KDFW) |
| Time | Latitude | Longitude | Altitude | Speed | Heading |
|---|---|---|---|---|---|
| 2026-05-07 21:13 | 19.43313 | -99.08468 | 7305 ft | 0 kts | 329° |
| 2026-05-07 21:25 | 19.43312 | -99.08467 | 7305 ft | 2 kts | 329° |
| 2026-05-07 21:25 | 19.43291 | -99.08452 | 7305 ft | 4 kts | 318° |
| 2026-05-07 21:25 | 19.43273 | -99.08431 | 7305 ft | 4 kts | 302° |
| 2026-05-07 21:25 | 19.43263 | -99.08405 | 7305 ft | 4 kts | 276° |
| 2026-05-07 21:26 | 19.43266 | -99.08383 | 7305 ft | 1 kts | 239° |
| 2026-05-07 21:29 | 19.43264 | -99.08387 | 7305 ft | 2 kts | 239° |
| 2026-05-07 21:29 | 19.43246 | -99.08418 | 7305 ft | 8 kts | 239° |
| 2026-05-07 21:29 | 19.43208 | -99.08485 | 7305 ft | 14 kts | 239° |
| 2026-05-07 21:29 | 19.43148 | -99.08591 | 7305 ft | 20 kts | 239° |
| 2026-05-07 21:30 | 19.43076 | -99.08717 | 7305 ft | 12 kts | 239° |
| 2026-05-07 21:30 | 19.43049 | -99.08729 | 7305 ft | 1 kts | 172° |
| 2026-05-07 21:30 | 19.43047 | -99.08728 | 7305 ft | 0 kts | 172° |
| 2026-05-07 21:30 | 19.43044 | -99.08728 | 7305 ft | 1 kts | 172° |
| 2026-05-07 21:31 | 19.43039 | -99.08727 | 7305 ft | 1 kts | 172° |
| 2026-05-07 21:31 | 19.43026 | -99.08725 | 7305 ft | 4 kts | 172° |
| 2026-05-07 21:31 | 19.42978 | -99.08710 | 7304 ft | 11 kts | 137° |
| 2026-05-07 21:31 | 19.43002 | -99.08620 | 7304 ft | 17 kts | 59° |
| 2026-05-07 21:32 | 19.43138 | -99.08376 | 7303 ft | 63 kts | 59° |
| 2026-05-07 21:32 | 19.43432 | -99.07837 | 7307 ft | 107 kts | 59° |
| 2026-05-07 21:32 | 19.43890 | -99.07038 | 7306 ft | 145 kts | 58° |
| 2026-05-07 21:32 | 19.44463 | -99.06003 | 7307 ft | 178 kts | 60° |
| 2026-05-07 21:33 | 19.45099 | -99.04842 | 7581 ft | 189 kts | 63° |
| 2026-05-07 21:33 | 19.45841 | -99.03528 | 7487 ft | 224 kts | 57° |
| 2026-05-07 21:33 | 19.46660 | -99.02131 | 8246 ft | 218 kts | 60° |
| 2026-05-07 21:33 | 19.47411 | -99.00778 | 9146 ft | 207 kts | 58° |
| 2026-05-07 21:34 | 19.48161 | -98.99436 | 9405 ft | 220 kts | 58° |
| 2026-05-07 21:34 | 19.48973 | -98.97986 | 9494 ft | 238 kts | 58° |
| 2026-05-07 21:34 | 19.49843 | -98.96433 | 9561 ft | 258 kts | 59° |
| 2026-05-07 21:34 | 19.50791 | -98.94739 | 9681 ft | 274 kts | 59° |
| 2026-05-07 21:35 | 19.51793 | -98.92952 | 9964 ft | 288 kts | 60° |
| 2026-05-07 21:35 | 19.52837 | -98.91091 | 10209 ft | 304 kts | 59° |
| 2026-05-07 21:35 | 19.54154 | -98.89270 | 10481 ft | 317 kts | 47° |
| 2026-05-07 21:35 | 19.55692 | -98.87523 | 10837 ft | 328 kts | 47° |
| 2026-05-07 21:36 | 19.57244 | -98.85744 | 11401 ft | 329 kts | 48° |
| 2026-05-07 21:36 | 19.58806 | -98.83946 | 11990 ft | 332 kts | 47° |
| 2026-05-07 21:36 | 19.60373 | -98.82139 | 12640 ft | 335 kts | 48° |
| 2026-05-07 21:36 | 19.61961 | -98.80306 | 13258 ft | 339 kts | 48° |
| 2026-05-07 21:37 | 19.63564 | -98.78455 | 13927 ft | 343 kts | 48° |
| 2026-05-07 21:37 | 19.65167 | -98.76603 | 14500 ft | 347 kts | 48° |
| 2026-05-07 21:37 | 19.66813 | -98.74702 | 15120 ft | 351 kts | 49° |
| 2026-05-07 21:37 | 19.68474 | -98.72783 | 15709 ft | 356 kts | 48° |
| 2026-05-07 21:38 | 19.70380 | -98.71091 | 16410 ft | 362 kts | 31° |
| 2026-05-07 21:38 | 19.72721 | -98.70101 | 16784 ft | 374 kts | 12° |
| 2026-05-07 21:38 | 19.75313 | -98.69796 | 17377 ft | 377 kts | 4° |
| 2026-05-07 21:38 | 19.77946 | -98.69573 | 17914 ft | 382 kts | 4° |
| 2026-05-07 21:39 | 19.80609 | -98.69367 | 18475 ft | 386 kts | 4° |
| 2026-05-07 21:39 | 19.83296 | -98.69173 | 18920 ft | 389 kts | 3° |
| 2026-05-07 21:39 | 19.85977 | -98.68990 | 19429 ft | 392 kts | 3° |
| 2026-05-07 21:39 | 19.88637 | -98.68809 | 19907 ft | 395 kts | 3° |
| 2026-05-07 21:40 | 19.91456 | -98.68618 | 20462 ft | 399 kts | 3° |
| 2026-05-07 21:40 | 19.94239 | -98.68486 | 21016 ft | 402 kts | 356° |
| 2026-05-07 21:40 | 19.96985 | -98.69039 | 21580 ft | 402 kts | 338° |
| 2026-05-07 21:40 | 19.99443 | -98.70393 | 22078 ft | 400 kts | 323° |
| 2026-05-07 21:41 | 20.01752 | -98.72071 | 22585 ft | 405 kts | 322° |
| 2026-05-07 21:41 | 20.04045 | -98.73782 | 23080 ft | 409 kts | 322° |
| 2026-05-07 21:41 | 20.06362 | -98.75537 | 23659 ft | 411 kts | 322° |
| 2026-05-07 21:41 | 20.08685 | -98.77317 | 24020 ft | 414 kts | 321° |
| 2026-05-07 21:42 | 20.11023 | -98.79118 | 24396 ft | 416 kts | 321° |
| 2026-05-07 21:42 | 20.13370 | -98.80930 | 24768 ft | 418 kts | 321° |
| 2026-05-07 21:42 | 20.15715 | -98.82758 | 25150 ft | 420 kts | 321° |
| 2026-05-07 21:42 | 20.18048 | -98.84585 | 25511 ft | 422 kts | 321° |
| 2026-05-07 21:43 | 20.20450 | -98.86464 | 25894 ft | 425 kts | 321° |
| 2026-05-07 21:43 | 20.22965 | -98.88122 | 26282 ft | 429 kts | 335° |
| 2026-05-07 21:43 | 20.25790 | -98.89000 | 26663 ft | 434 kts | 351° |
| 2026-05-07 21:43 | 20.28838 | -98.89146 | 26930 ft | 440 kts | 358° |
| 2026-05-07 21:44 | 20.31904 | -98.89160 | 27302 ft | 441 kts | 358° |
| 2026-05-07 21:44 | 20.34983 | -98.89149 | 27642 ft | 444 kts | 359° |
| 2026-05-07 21:44 | 20.38080 | -98.89120 | 27976 ft | 446 kts | 359° |
| 2026-05-07 21:44 | 20.41183 | -98.88939 | 28290 ft | 450 kts | 9° |
| 2026-05-07 21:45 | 20.44173 | -98.87961 | 28650 ft | 452 kts | 26° |
| 2026-05-07 21:45 | 20.46853 | -98.86227 | 28946 ft | 454 kts | 35° |
| 2026-05-07 21:45 | 20.49429 | -98.84335 | 29211 ft | 457 kts | 35° |
| 2026-05-07 21:45 | 20.52035 | -98.82386 | 29509 ft | 459 kts | 36° |
| 2026-05-07 21:46 | 20.54642 | -98.80409 | 29835 ft | 461 kts | 36° |
| 2026-05-07 21:46 | 20.57252 | -98.78410 | 30092 ft | 464 kts | 36° |
| 2026-05-07 21:46 | 20.59866 | -98.76402 | 30315 ft | 466 kts | 36° |
| 2026-05-07 21:46 | 20.62506 | -98.74370 | 30580 ft | 468 kts | 36° |
| 2026-05-07 21:47 | 20.65127 | -98.72352 | 30818 ft | 470 kts | 36° |
| 2026-05-07 21:47 | 20.67787 | -98.70302 | 31058 ft | 472 kts | 36° |
| 2026-05-07 21:47 | 20.70451 | -98.68248 | 31313 ft | 473 kts | 35° |
| 2026-05-07 21:47 | 20.73121 | -98.66190 | 31563 ft | 475 kts | 35° |
| 2026-05-07 21:48 | 20.75798 | -98.64125 | 31806 ft | 477 kts | 35° |
| 2026-05-07 21:48 | 20.77580 | -98.62749 | 31976 ft | 478 kts | 35° |
| 2026-05-07 21:48 | 20.80276 | -98.60667 | 32203 ft | 480 kts | 35° |
| 2026-05-07 21:48 | 20.83864 | -98.57896 | 32527 ft | 483 kts | 35° |
| 2026-05-07 21:49 | 20.86590 | -98.55790 | 32767 ft | 484 kts | 34° |
| 2026-05-07 21:49 | 20.89318 | -98.53680 | 33042 ft | 485 kts | 34° |
| 2026-05-07 21:49 | 20.91134 | -98.52275 | 33184 ft | 487 kts | 34° |
| 2026-05-07 21:49 | 20.93883 | -98.50146 | 33373 ft | 489 kts | 34° |
| 2026-05-07 21:50 | 20.96642 | -98.48012 | 33547 ft | 492 kts | 34° |
| 2026-05-07 21:50 | 20.99408 | -98.45870 | 33809 ft | 492 kts | 34° |
| 2026-05-07 21:50 | 21.03086 | -98.43019 | 34148 ft | 492 kts | 34° |
| 2026-05-07 21:50 | 21.04958 | -98.41568 | 34322 ft | 492 kts | 34° |
| 2026-05-07 21:51 | 21.07717 | -98.39428 | 34574 ft | 492 kts | 34° |
| 2026-05-07 21:51 | 21.10483 | -98.37282 | 34772 ft | 492 kts | 34° |
| 2026-05-07 21:51 | 21.15990 | -98.33006 | 34783 ft | 490 kts | 34° |
| 2026-05-07 21:52 | 21.21509 | -98.28716 | 34778 ft | 489 kts | 34° |
| 2026-05-07 21:52 | 21.26709 | -98.24067 | 34796 ft | 489 kts | 43° |
| 2026-05-07 21:53 | 21.31617 | -98.18971 | 34780 ft | 491 kts | 43° |
| 2026-05-07 21:53 | 21.36516 | -98.13862 | 34788 ft | 491 kts | 43° |
| 2026-05-07 21:54 | 21.41387 | -98.08776 | 34791 ft | 491 kts | 43° |
| 2026-05-07 21:54 | 21.46561 | -98.04060 | 34788 ft | 485 kts | 25° |
| 2026-05-07 21:55 | 21.49669 | -98.02733 | 34803 ft | 478 kts | 10° |
| 2026-05-07 21:55 | 21.52924 | -98.01975 | 34796 ft | 480 kts | 8° |
| 2026-05-07 21:55 | 21.59468 | -98.00549 | 34799 ft | 479 kts | 8° |
| 2026-05-07 21:56 | 21.66022 | -97.99198 | 34799 ft | 480 kts | 7° |
| 2026-05-07 21:56 | 21.72558 | -97.97863 | 34798 ft | 480 kts | 7° |
| 2026-05-07 21:57 | 21.79133 | -97.96520 | 34803 ft | 480 kts | 7° |
| 2026-05-07 21:57 | 21.85694 | -97.95179 | 34802 ft | 479 kts | 7° |
| 2026-05-07 21:58 | 21.92234 | -97.93841 | 34807 ft | 479 kts | 7° |
| 2026-05-07 21:58 | 21.98795 | -97.92498 | 34816 ft | 479 kts | 7° |
| 2026-05-07 21:59 | 22.05323 | -97.91159 | 34829 ft | 480 kts | 7° |
| 2026-05-07 21:59 | 22.11889 | -97.89811 | 34839 ft | 480 kts | 7° |
| 2026-05-07 22:00 | 22.18444 | -97.88465 | 34848 ft | 480 kts | 7° |
| 2026-05-07 22:00 | 22.25006 | -97.87116 | 34853 ft | 480 kts | 7° |
| 2026-05-07 22:01 | 22.31557 | -97.86636 | 34859 ft | 466 kts | 349° |
| 2026-05-07 22:01 | 22.38038 | -97.87194 | 34834 ft | 470 kts | 350° |
| 2026-05-07 22:02 | 22.44563 | -97.87805 | 34836 ft | 470 kts | 350° |
| 2026-05-07 22:02 | 22.51082 | -97.88433 | 34825 ft | 470 kts | 350° |
| 2026-05-07 22:03 | 22.57568 | -97.89059 | 34825 ft | 470 kts | 350° |
| 2026-05-07 22:03 | 22.64083 | -97.89688 | 34823 ft | 469 kts | 349° |
| 2026-05-07 22:04 | 22.70595 | -97.90317 | 34825 ft | 469 kts | 349° |
| 2026-05-07 22:04 | 22.77069 | -97.90942 | 34826 ft | 469 kts | 349° |
| 2026-05-07 22:05 | 22.83586 | -97.91573 | 34832 ft | 469 kts | 349° |
| 2026-05-07 22:05 | 22.90094 | -97.92205 | 34833 ft | 469 kts | 349° |
| 2026-05-07 22:06 | 22.96597 | -97.92839 | 34838 ft | 469 kts | 349° |
| 2026-05-07 22:06 | 23.03067 | -97.93469 | 34840 ft | 469 kts | 349° |
| 2026-05-07 22:07 | 23.09579 | -97.94104 | 34843 ft | 469 kts | 349° |
| 2026-05-07 22:07 | 23.16086 | -97.94739 | 34844 ft | 469 kts | 349° |
| 2026-05-07 22:08 | 23.22586 | -97.95374 | 34848 ft | 469 kts | 349° |
| 2026-05-07 22:08 | 23.29086 | -97.96009 | 34849 ft | 468 kts | 349° |
| 2026-05-07 22:09 | 23.35577 | -97.96644 | 34850 ft | 468 kts | 349° |
| 2026-05-07 22:09 | 23.42020 | -97.97275 | 34850 ft | 469 kts | 349° |
| 2026-05-07 22:10 | 23.48537 | -97.97914 | 34848 ft | 470 kts | 349° |
| 2026-05-07 22:10 | 23.55058 | -97.98554 | 34867 ft | 470 kts | 349° |
| 2026-05-07 22:11 | 23.61571 | -97.99193 | 34850 ft | 469 kts | 349° |
| 2026-05-07 22:11 | 23.68074 | -97.99832 | 34851 ft | 469 kts | 349° |
| 2026-05-07 22:12 | 23.74588 | -98.00473 | 34847 ft | 469 kts | 349° |
| 2026-05-07 22:12 | 23.81095 | -98.01114 | 34860 ft | 469 kts | 349° |
| 2026-05-07 22:13 | 23.87595 | -98.01756 | 34859 ft | 469 kts | 349° |
| 2026-05-07 22:13 | 23.94055 | -98.02393 | 34852 ft | 469 kts | 349° |
| 2026-05-07 22:14 | 24.00560 | -98.03035 | 34854 ft | 469 kts | 349° |
| 2026-05-07 22:14 | 24.07064 | -98.03679 | 34855 ft | 469 kts | 349° |
| 2026-05-07 22:15 | 24.13570 | -98.04323 | 34857 ft | 469 kts | 349° |
| 2026-05-07 22:15 | 24.20075 | -98.04968 | 34864 ft | 469 kts | 348° |
| 2026-05-07 22:16 | 24.26588 | -98.05614 | 34855 ft | 470 kts | 348° |
| 2026-05-07 22:16 | 24.33101 | -98.06263 | 34851 ft | 470 kts | 348° |
| 2026-05-07 22:17 | 24.39614 | -98.06912 | 34852 ft | 470 kts | 348° |
| 2026-05-07 22:17 | 24.46133 | -98.07562 | 34853 ft | 470 kts | 348° |
| 2026-05-07 22:18 | 24.55858 | -98.08534 | 34857 ft | 470 kts | 348° |
| 2026-05-07 22:19 | 24.62379 | -98.09186 | 34852 ft | 470 kts | 348° |
| 2026-05-07 22:19 | 24.68890 | -98.09838 | 34853 ft | 470 kts | 348° |
| 2026-05-07 22:20 | 24.75415 | -98.10492 | 34852 ft | 470 kts | 348° |
| 2026-05-07 22:20 | 24.81925 | -98.11146 | 34860 ft | 470 kts | 348° |
| 2026-05-07 22:21 | 24.88438 | -98.11800 | 34856 ft | 470 kts | 348° |
| 2026-05-07 22:21 | 24.94955 | -98.12452 | 34859 ft | 470 kts | 348° |
| 2026-05-07 22:22 | 25.01436 | -98.13099 | 34859 ft | 470 kts | 348° |
| 2026-05-07 22:22 | 25.07966 | -98.13751 | 34862 ft | 470 kts | 348° |
| 2026-05-07 22:23 | 25.14494 | -98.14404 | 34866 ft | 471 kts | 348° |
| 2026-05-07 22:23 | 25.21018 | -98.15057 | 34868 ft | 471 kts | 348° |
| 2026-05-07 22:24 | 25.27548 | -98.15716 | 34869 ft | 471 kts | 348° |
| 2026-05-07 22:24 | 25.34082 | -98.16376 | 34870 ft | 471 kts | 348° |
| 2026-05-07 22:25 | 25.40571 | -98.17032 | 34870 ft | 471 kts | 348° |
| 2026-05-07 22:25 | 25.47111 | -98.17694 | 34874 ft | 473 kts | 348° |
| 2026-05-07 22:26 | 25.53688 | -98.18360 | 34879 ft | 474 kts | 348° |
| 2026-05-07 22:26 | 25.60258 | -98.19027 | 34877 ft | 474 kts | 348° |
| 2026-05-07 22:27 | 25.66819 | -98.19694 | 34887 ft | 474 kts | 348° |
| 2026-05-07 22:27 | 25.73389 | -98.20363 | 34910 ft | 474 kts | 347° |
| 2026-05-07 22:28 | 25.79969 | -98.21033 | 34916 ft | 475 kts | 347° |
| 2026-05-07 22:28 | 25.86555 | -98.21705 | 34919 ft | 475 kts | 347° |
| 2026-05-07 22:29 | 25.93094 | -98.22372 | 34927 ft | 475 kts | 347° |
| 2026-05-07 22:29 | 25.99672 | -98.23044 | 34925 ft | 475 kts | 348° |
| 2026-05-07 22:30 | 26.06302 | -98.23441 | 34935 ft | 477 kts | 349° |
| 2026-05-07 22:30 | 26.12933 | -98.23843 | 34937 ft | 477 kts | 349° |
| 2026-05-07 22:31 | 26.19575 | -98.24251 | 34938 ft | 477 kts | 349° |
| 2026-05-07 22:31 | 26.26213 | -98.24660 | 34933 ft | 477 kts | 349° |
| 2026-05-07 22:32 | 26.32841 | -98.25068 | 34954 ft | 477 kts | 349° |
| 2026-05-07 22:32 | 26.39419 | -98.25474 | 34933 ft | 476 kts | 349° |
| 2026-05-07 22:33 | 26.46034 | -98.25882 | 34934 ft | 476 kts | 349° |
| 2026-05-07 22:33 | 26.52652 | -98.26291 | 34934 ft | 476 kts | 349° |
| 2026-05-07 22:34 | 26.59262 | -98.26700 | 34938 ft | 476 kts | 349° |
| 2026-05-07 22:34 | 26.65881 | -98.27111 | 34948 ft | 476 kts | 349° |
| 2026-05-07 22:35 | 26.72481 | -98.27520 | 34945 ft | 475 kts | 349° |
| 2026-05-07 22:35 | 26.79085 | -98.27930 | 34948 ft | 475 kts | 349° |
| 2026-05-07 22:36 | 26.85661 | -98.28339 | 34948 ft | 475 kts | 349° |
| 2026-05-07 22:36 | 26.92267 | -98.28750 | 34952 ft | 475 kts | 349° |
| 2026-05-07 22:37 | 26.98872 | -98.29162 | 34956 ft | 475 kts | 348° |
| 2026-05-07 22:37 | 27.05473 | -98.29573 | 34953 ft | 475 kts | 348° |
| 2026-05-07 22:38 | 27.12072 | -98.29986 | 34957 ft | 475 kts | 348° |
| 2026-05-07 22:38 | 27.17557 | -98.30329 | 34953 ft | 475 kts | 348° |
| 2026-05-07 22:39 | 27.24156 | -98.30742 | 34977 ft | 475 kts | 348° |
| 2026-05-07 22:39 | 27.30752 | -98.31155 | 34958 ft | 474 kts | 348° |
| 2026-05-07 22:40 | 27.37339 | -98.31568 | 34956 ft | 474 kts | 348° |
| 2026-05-07 22:40 | 27.43926 | -98.31982 | 34968 ft | 474 kts | 348° |
| 2026-05-07 22:41 | 27.50517 | -98.32397 | 34969 ft | 474 kts | 348° |
| 2026-05-07 22:41 | 27.57062 | -98.32809 | 34971 ft | 474 kts | 348° |
| 2026-05-07 22:42 | 27.63651 | -98.33224 | 34970 ft | 474 kts | 348° |
| 2026-05-07 22:42 | 27.70239 | -98.33640 | 34966 ft | 474 kts | 348° |
| 2026-05-07 22:43 | 27.76829 | -98.34057 | 34969 ft | 474 kts | 348° |
| 2026-05-07 22:43 | 27.83415 | -98.34474 | 35001 ft | 474 kts | 348° |
| 2026-05-07 22:44 | 27.90035 | -98.34893 | 34972 ft | 477 kts | 348° |
| 2026-05-07 22:44 | 27.96630 | -98.35311 | 34956 ft | 478 kts | 348° |
| 2026-05-07 22:45 | 28.03268 | -98.35733 | 34953 ft | 478 kts | 348° |
| 2026-05-07 22:45 | 28.09917 | -98.36156 | 34936 ft | 478 kts | 348° |
| 2026-05-07 22:46 | 28.16553 | -98.36578 | 34942 ft | 478 kts | 348° |
| 2026-05-07 22:46 | 28.23188 | -98.37001 | 34945 ft | 477 kts | 348° |
| 2026-05-07 22:47 | 28.29820 | -98.37425 | 34950 ft | 477 kts | 348° |
| 2026-05-07 22:47 | 28.36454 | -98.37849 | 34951 ft | 477 kts | 348° |
| 2026-05-07 22:48 | 28.43090 | -98.38274 | 34976 ft | 478 kts | 347° |
| 2026-05-07 22:48 | 28.49750 | -98.38700 | 34958 ft | 480 kts | 347° |
| 2026-05-07 22:49 | 28.56417 | -98.39128 | 34962 ft | 480 kts | 347° |
| 2026-05-07 22:49 | 28.63080 | -98.39556 | 34964 ft | 480 kts | 347° |
| 2026-05-07 22:50 | 28.69749 | -98.39984 | 34985 ft | 480 kts | 347° |
| 2026-05-07 22:50 | 28.76370 | -98.40411 | 34970 ft | 479 kts | 347° |
| 2026-05-07 22:51 | 28.83033 | -98.40840 | 34975 ft | 479 kts | 347° |
| 2026-05-07 22:51 | 28.89692 | -98.41270 | 34977 ft | 479 kts | 347° |
| 2026-05-07 22:52 | 28.96352 | -98.41701 | 34978 ft | 479 kts | 347° |
| 2026-05-07 22:52 | 29.03008 | -98.42132 | 34988 ft | 478 kts | 347° |
| 2026-05-07 22:53 | 29.09640 | -98.42561 | 34993 ft | 477 kts | 347° |
| 2026-05-07 22:53 | 29.16271 | -98.42992 | 34991 ft | 477 kts | 347° |
| 2026-05-07 22:54 | 29.22898 | -98.43422 | 34999 ft | 477 kts | 347° |
| 2026-05-07 22:54 | 29.29524 | -98.43854 | 35040 ft | 477 kts | 347° |
| 2026-05-07 22:55 | 29.36141 | -98.44284 | 35028 ft | 478 kts | 347° |
| 2026-05-07 22:55 | 29.42773 | -98.44717 | 35026 ft | 478 kts | 347° |
| 2026-05-07 22:56 | 29.49391 | -98.45149 | 35023 ft | 478 kts | 347° |
| 2026-05-07 22:56 | 29.56033 | -98.45583 | 35078 ft | 478 kts | 347° |
| 2026-05-07 22:57 | 29.62673 | -98.46017 | 35057 ft | 478 kts | 347° |
| 2026-05-07 22:57 | 29.66043 | -98.45842 | 35031 ft | 494 kts | 1° |
| 2026-05-07 22:57 | 29.69399 | -98.45203 | 35053 ft | 495 kts | 359° |
| 2026-05-07 22:58 | 29.76202 | -98.44015 | 35043 ft | 495 kts | 360° |
| 2026-05-07 22:58 | 29.82983 | -98.42801 | 35031 ft | 495 kts | 360° |
| 2026-05-07 22:59 | 29.89790 | -98.41577 | 35033 ft | 495 kts | 359° |
| 2026-05-07 22:59 | 29.96574 | -98.40356 | 35038 ft | 495 kts | 359° |
| 2026-05-07 23:00 | 30.03375 | -98.39130 | 35042 ft | 495 kts | 359° |
| 2026-05-07 23:00 | 30.10185 | -98.37901 | 35046 ft | 495 kts | 359° |
| 2026-05-07 23:01 | 30.16943 | -98.36679 | 35064 ft | 493 kts | 360° |
| 2026-05-07 23:01 | 30.23697 | -98.35456 | 35055 ft | 491 kts | 360° |
| 2026-05-07 23:02 | 30.30447 | -98.34233 | 35063 ft | 491 kts | 359° |
| 2026-05-07 23:02 | 30.37179 | -98.33011 | 35068 ft | 488 kts | 359° |
| 2026-05-07 23:03 | 30.43892 | -98.31791 | 35074 ft | 488 kts | 359° |
| 2026-05-07 23:03 | 30.50608 | -98.30568 | 35072 ft | 489 kts | 359° |
| 2026-05-07 23:04 | 30.57325 | -98.29344 | 35074 ft | 488 kts | 359° |
| 2026-05-07 23:04 | 30.64047 | -98.28117 | 35085 ft | 488 kts | 359° |
| 2026-05-07 23:05 | 30.70763 | -98.26890 | 35108 ft | 488 kts | 359° |
| 2026-05-07 23:05 | 30.77486 | -98.25659 | 35086 ft | 489 kts | 359° |
| 2026-05-07 23:06 | 30.84208 | -98.24427 | 35081 ft | 489 kts | 359° |
| 2026-05-07 23:06 | 30.90869 | -98.23204 | 35076 ft | 489 kts | 359° |
| 2026-05-07 23:07 | 30.97544 | -98.21977 | 35079 ft | 489 kts | 359° |
| 2026-05-07 23:07 | 31.04248 | -98.20743 | 35079 ft | 489 kts | 359° |
| 2026-05-07 23:07 | 31.07608 | -98.20124 | 34930 ft | 489 kts | 359° |
| 2026-05-07 23:08 | 31.10985 | -98.19501 | 34298 ft | 494 kts | 359° |
| 2026-05-07 23:08 | 31.14399 | -98.18872 | 33257 ft | 501 kts | 0° |
| 2026-05-07 23:08 | 31.17857 | -98.18232 | 32353 ft | 505 kts | 0° |
| 2026-05-07 23:08 | 31.21322 | -98.17591 | 31662 ft | 504 kts | 1° |
| 2026-05-07 23:09 | 31.24756 | -98.16955 | 31063 ft | 501 kts | 1° |
| 2026-05-07 23:09 | 31.28182 | -98.16323 | 30421 ft | 500 kts | 2° |
| 2026-05-07 23:09 | 31.31624 | -98.15686 | 29511 ft | 503 kts | 2° |
| 2026-05-07 23:09 | 31.35081 | -98.15045 | 28596 ft | 506 kts | 2° |
| 2026-05-07 23:10 | 31.38548 | -98.14402 | 27849 ft | 504 kts | 2° |
| 2026-05-07 23:10 | 31.42004 | -98.13802 | 26994 ft | 503 kts | 1° |
| 2026-05-07 23:10 | 31.45439 | -98.13283 | 26080 ft | 505 kts | 0° |
| 2026-05-07 23:10 | 31.48913 | -98.12766 | 25521 ft | 499 kts | 1° |
| 2026-05-07 23:11 | 31.52326 | -98.12252 | 25014 ft | 492 kts | 0° |
| 2026-05-07 23:11 | 31.55707 | -98.11741 | 24454 ft | 487 kts | 0° |
| 2026-05-07 23:11 | 31.59042 | -98.11237 | 23867 ft | 482 kts | 0° |
| 2026-05-07 23:11 | 31.62353 | -98.10735 | 23223 ft | 477 kts | 0° |
| 2026-05-07 23:12 | 31.65590 | -98.09860 | 22596 ft | 484 kts | 15° |
| 2026-05-07 23:12 | 31.68548 | -98.08054 | 22172 ft | 470 kts | 25° |
| 2026-05-07 23:12 | 31.71318 | -98.06190 | 21779 ft | 449 kts | 24° |
| 2026-05-07 23:12 | 31.73990 | -98.04416 | 21311 ft | 433 kts | 24° |
| 2026-05-07 23:13 | 31.76601 | -98.02673 | 20847 ft | 431 kts | 24° |
| 2026-05-07 23:13 | 31.79198 | -98.00937 | 20400 ft | 428 kts | 24° |
| 2026-05-07 23:13 | 31.81772 | -97.99213 | 19957 ft | 424 kts | 24° |
| 2026-05-07 23:13 | 31.84323 | -97.97503 | 19527 ft | 419 kts | 25° |
| 2026-05-07 23:14 | 31.86846 | -97.95813 | 19090 ft | 414 kts | 25° |
| 2026-05-07 23:14 | 31.89344 | -97.94137 | 18658 ft | 410 kts | 25° |
| 2026-05-07 23:14 | 31.91811 | -97.92480 | 18211 ft | 407 kts | 25° |
| 2026-05-07 23:14 | 31.94262 | -97.90834 | 17749 ft | 404 kts | 25° |
| 2026-05-07 23:15 | 31.96691 | -97.89201 | 17324 ft | 401 kts | 25° |
| 2026-05-07 23:15 | 31.99109 | -97.87575 | 16909 ft | 399 kts | 25° |
| 2026-05-07 23:15 | 32.01513 | -97.85956 | 16500 ft | 397 kts | 26° |
| 2026-05-07 23:15 | 32.03904 | -97.84347 | 16109 ft | 394 kts | 26° |
| 2026-05-07 23:16 | 32.06245 | -97.82769 | 15704 ft | 392 kts | 26° |
| 2026-05-07 23:16 | 32.08579 | -97.81196 | 15314 ft | 379 kts | 26° |
| 2026-05-07 23:16 | 32.10828 | -97.79679 | 14943 ft | 366 kts | 26° |
| 2026-05-07 23:16 | 32.13016 | -97.78202 | 14416 ft | 360 kts | 25° |
| 2026-05-07 23:17 | 32.15172 | -97.76746 | 13922 ft | 353 kts | 25° |
| 2026-05-07 23:17 | 32.17294 | -97.75326 | 13518 ft | 350 kts | 25° |
| 2026-05-07 23:17 | 32.19412 | -97.73909 | 13202 ft | 350 kts | 25° |
| 2026-05-07 23:17 | 32.21531 | -97.72491 | 12933 ft | 349 kts | 25° |
| 2026-05-07 23:18 | 32.23659 | -97.71124 | 12599 ft | 346 kts | 22° |
| 2026-05-07 23:18 | 32.25815 | -97.69867 | 12233 ft | 345 kts | 22° |
| 2026-05-07 23:18 | 32.27957 | -97.68605 | 11902 ft | 344 kts | 23° |
| 2026-05-07 23:18 | 32.30077 | -97.67348 | 11584 ft | 335 kts | 24° |
| 2026-05-07 23:19 | 32.32122 | -97.66132 | 11273 ft | 323 kts | 24° |
| 2026-05-07 23:19 | 32.34096 | -97.64957 | 10967 ft | 312 kts | 24° |
| 2026-05-07 23:19 | 32.36004 | -97.63821 | 10681 ft | 303 kts | 24° |
| 2026-05-07 23:19 | 32.37879 | -97.62677 | 10396 ft | 304 kts | 30° |
| 2026-05-07 23:20 | 32.39496 | -97.61089 | 10083 ft | 303 kts | 43° |
| 2026-05-07 23:20 | 32.41014 | -97.59347 | 9782 ft | 303 kts | 43° |
| 2026-05-07 23:20 | 32.42529 | -97.57623 | 9453 ft | 302 kts | 43° |
| 2026-05-07 23:20 | 32.44039 | -97.55903 | 9162 ft | 300 kts | 43° |
| 2026-05-07 23:21 | 32.45540 | -97.54191 | 8881 ft | 299 kts | 43° |
| 2026-05-07 23:21 | 32.46957 | -97.52404 | 8553 ft | 297 kts | 56° |
| 2026-05-07 23:21 | 32.47728 | -97.50193 | 8168 ft | 293 kts | 81° |
| 2026-05-07 23:21 | 32.48004 | -97.47812 | 7902 ft | 291 kts | 84° |
| 2026-05-07 23:22 | 32.48259 | -97.45435 | 7642 ft | 291 kts | 84° |
| 2026-05-07 23:22 | 32.48499 | -97.43076 | 7321 ft | 289 kts | 84° |
| 2026-05-07 23:22 | 32.48731 | -97.40725 | 7010 ft | 286 kts | 84° |
| 2026-05-07 23:22 | 32.48956 | -97.38390 | 6591 ft | 286 kts | 84° |
| 2026-05-07 23:23 | 32.49179 | -97.36048 | 6131 ft | 284 kts | 84° |
| 2026-05-07 23:23 | 32.49397 | -97.33744 | 5690 ft | 280 kts | 84° |
| 2026-05-07 23:23 | 32.49611 | -97.31465 | 5305 ft | 275 kts | 83° |
| 2026-05-07 23:23 | 32.49818 | -97.29246 | 5121 ft | 268 kts | 83° |
| 2026-05-07 23:24 | 32.50139 | -97.27086 | 5015 ft | 265 kts | 68° |
| 2026-05-07 23:24 | 32.51046 | -97.25218 | 4922 ft | 259 kts | 51° |
| 2026-05-07 23:24 | 32.51999 | -97.23528 | 4864 ft | 242 kts | 62° |
| 2026-05-07 23:24 | 32.52688 | -97.21774 | 4739 ft | 228 kts | 63° |
| 2026-05-07 23:25 | 32.53340 | -97.20134 | 4613 ft | 213 kts | 63° |
| 2026-05-07 23:25 | 32.53971 | -97.18577 | 4515 ft | 208 kts | 63° |
| 2026-05-07 23:25 | 32.54602 | -97.17038 | 4457 ft | 207 kts | 63° |
| 2026-05-07 23:25 | 32.55232 | -97.15503 | 4408 ft | 207 kts | 63° |
| 2026-05-07 23:26 | 32.55866 | -97.13971 | 4343 ft | 207 kts | 63° |
| 2026-05-07 23:26 | 32.56498 | -97.12444 | 4281 ft | 206 kts | 63° |
| 2026-05-07 23:26 | 32.56926 | -97.11413 | 4241 ft | 206 kts | 62° |
| 2026-05-07 23:26 | 32.57766 | -97.09396 | 4122 ft | 205 kts | 63° |
| 2026-05-07 23:27 | 32.58858 | -97.06917 | 3975 ft | 203 kts | 50° |
| 2026-05-07 23:27 | 32.59992 | -97.05978 | 3858 ft | 200 kts | 17° |
| 2026-05-07 23:27 | 32.61370 | -97.05769 | 3797 ft | 202 kts | 2° |
| 2026-05-07 23:28 | 32.62777 | -97.05709 | 3755 ft | 203 kts | 2° |
| 2026-05-07 23:28 | 32.64178 | -97.05642 | 3683 ft | 200 kts | 2° |
| 2026-05-07 23:28 | 32.65537 | -97.05607 | 3572 ft | 193 kts | 1° |
| 2026-05-07 23:28 | 32.66868 | -97.05595 | 3477 ft | 190 kts | 1° |
| 2026-05-07 23:29 | 32.68188 | -97.05585 | 3384 ft | 190 kts | 1° |
| 2026-05-07 23:29 | 32.69506 | -97.05579 | 3326 ft | 190 kts | 1° |
| 2026-05-07 23:29 | 32.70811 | -97.05575 | 3296 ft | 185 kts | 1° |
| 2026-05-07 23:29 | 32.72088 | -97.05572 | 3227 ft | 183 kts | 1° |
| 2026-05-07 23:30 | 32.73353 | -97.05568 | 3125 ft | 182 kts | 1° |
| 2026-05-07 23:30 | 32.74617 | -97.05555 | 3048 ft | 182 kts | 1° |
| 2026-05-07 23:30 | 32.75888 | -97.05545 | 2903 ft | 182 kts | 1° |
| 2026-05-07 23:30 | 32.77152 | -97.05538 | 2690 ft | 181 kts | 1° |
| 2026-05-07 23:31 | 32.78370 | -97.05531 | 2517 ft | 166 kts | 1° |
| 2026-05-07 23:31 | 32.79487 | -97.05527 | 2286 ft | 157 kts | 1° |
| 2026-05-07 23:31 | 32.80564 | -97.05521 | 2042 ft | 153 kts | 1° |
| 2026-05-07 23:31 | 32.81623 | -97.05515 | 1842 ft | 153 kts | 2° |
| 2026-05-07 23:32 | 32.82673 | -97.05510 | 1642 ft | 152 kts | 1° |
| 2026-05-07 23:32 | 32.83730 | -97.05505 | 1439 ft | 152 kts | 1° |
| 2026-05-07 23:32 | 32.84775 | -97.05499 | 1236 ft | 153 kts | 0° |
| 2026-05-07 23:32 | 32.85834 | -97.05494 | 1043 ft | 153 kts | 1° |
| 2026-05-07 23:33 | 32.86898 | -97.05503 | 838 ft | 157 kts | 360° |
| 2026-05-07 23:33 | 32.87954 | -97.05492 | 640 ft | 151 kts | 2° |
| 2026-05-07 23:33 | 32.88929 | -97.05475 | 601 ft | 132 kts | 360° |
| 2026-05-07 23:33 | 32.89737 | -97.05473 | 601 ft | 103 kts | 1° |
| 2026-05-07 23:34 | 32.90189 | -97.05449 | 601 ft | 45 kts | 14° |
| 2026-05-07 23:34 | 32.90369 | -97.05350 | 601 ft | 27 kts | 28° |
| 2026-05-07 23:34 | 32.90473 | -97.05239 | 601 ft | 16 kts | 80° |
| 2026-05-07 23:34 | 32.90476 | -97.05100 | 601 ft | 18 kts | 90° |
| 2026-05-07 23:35 | 32.90476 | -97.04952 | 601 ft | 18 kts | 90° |
| 2026-05-07 23:35 | 32.90473 | -97.04812 | 601 ft | 16 kts | 91° |
| 2026-05-07 23:35 | 32.90474 | -97.04690 | 601 ft | 13 kts | 90° |
| 2026-05-07 23:35 | 32.90463 | -97.04600 | 601 ft | 10 kts | 103° |
| 2026-05-07 23:36 | 32.90460 | -97.04587 | 601 ft | 2 kts | 103° |
| 2026-05-07 23:36 | 32.90460 | -97.04586 | 601 ft | 0 kts | 103° |